Impacts TAF Board
For situational awareness. Not to be used for flight planning purposes.
IDs:

KSTL - St Louis/Lambert Int, MO, US

Issued at 1259 UTC 10 Aug 2022
Updated at 1421 UTC 10 Aug 2022
Potential Impact None Slight Moderate High
Time1351Z 10/15Z 10/16Z 10/17Z 10/18Z 10/19Z 10/20Z 10/21Z 10/22Z 10/23Z 11/00Z 11/01Z 11/02Z 11/03Z>>
Type OBS PRVL PRVL PRVL PRVL PRVL PRVL PRVL PRVL PRVL PRVL PRVL PRVL PRVL
VIS 10 >6 >6 >6 >6 >6 >6 >6 >6 >6 >6 >6 >6 >6
CIG 33 -- -- -- -- -- -- -- -- -- -- -- -- --
Cover BKN SCT SCT SCT SCT SCT SCT SCT SCT SCT SCT SCT SCT SCT
FltCat VFR VFR VFR VFR VFR VFR VFR VFR VFR VFR VFR VFR VFR VFR
WX -- -- -- -- -- -- -- -- -- -- -- -- -- --
WDir 90 40 40 40 40 40 40 40 40 40 40 40 40 40
WSpd 5 5 5 5 5 5 5 5 5 5 5 5 5 5
WGst -- -- -- -- -- -- -- -- -- -- -- -- -- --
WSHgt -- -- -- -- -- -- -- -- -- -- -- -- -- --
WSDir -- -- -- -- -- -- -- -- -- -- -- -- -- --
WSSpd -- -- -- -- -- -- -- -- -- -- -- -- -- --
Raw TAF
KSTL 101259Z 1013/1118 03003KT P6SM SCT025 BKN050
  TEMPO 1013/1015 BKN025
  FM101500 04005KT P6SM SCT040


Raw METAR
KSTL 101351Z 09005KT 10SM SCT009 BKN033 BKN055 23/20 A3019 RMK AO2 SLP214 T02330200
KSTL 101340Z 06005KT 10SM SCT009 BKN033 BKN055 23/20 A3019 RMK AO2 T02330200
KSTL 101251Z 07004KT 9SM FEW003 BKN027 BKN048 22/19 A3018 RMK AO2 SLP211 T02220194
KSTL 101227Z 03004KT 9SM FEW003 BKN025 BKN044 22/19 A3018 RMK AO2 T02170194
KSTL 101151Z 00000KT 8SM FEW003 FEW028 BKN043 21/19 A3017 RMK AO2 SLP207 T02060189 10222 20200 53021

METAR Board
Radar Display
Forecast Discussion
For situational awareness. Not to be used for flight planning purposes.